createdAt,value
2022-11-20T00:01:26.656Z,11.10
2022-11-20T00:03:55.192Z,11.10
2022-11-20T00:06:23.114Z,11.00
2022-11-20T00:08:50.544Z,11.10
2022-11-20T00:11:20.352Z,11.10
2022-11-20T00:13:49.353Z,11.20
2022-11-20T00:16:19.062Z,11.10
2022-11-20T00:18:46.700Z,11.10
2022-11-20T00:21:19.307Z,11.00
2022-11-20T00:23:46.260Z,11.00
2022-11-20T00:26:14.192Z,10.90
2022-11-20T00:28:41.732Z,10.80
2022-11-20T00:31:14.600Z,10.90
2022-11-20T00:33:42.883Z,10.80
2022-11-20T00:36:15.806Z,10.80
2022-11-20T00:38:43.433Z,10.70
2022-11-20T00:41:12.188Z,10.70
2022-11-20T00:43:39.087Z,10.70
2022-11-20T00:46:11.461Z,10.60
2022-11-20T00:48:38.322Z,10.50
2022-11-20T00:51:06.693Z,10.50
2022-11-20T00:53:33.574Z,10.40
2022-11-20T00:56:06.564Z,10.40
2022-11-20T00:58:35.781Z,10.40
2022-11-20T01:01:08.721Z,10.30
2022-11-20T01:03:37.959Z,10.30
2022-11-20T01:06:07.728Z,10.20
2022-11-20T01:08:36.064Z,10.20
2022-11-20T01:11:04.744Z,10.30
2022-11-20T01:13:38.048Z,10.20
2022-11-20T01:16:09.834Z,10.20
2022-11-20T01:18:38.387Z,10.20
2022-11-20T01:21:11.731Z,10.10
2022-11-20T01:23:39.514Z,10.20
2022-11-20T01:26:09.173Z,10.10
2022-11-20T01:28:36.752Z,10.00
2022-11-20T01:31:13.946Z,9.90
2022-11-20T01:33:42.063Z,10.10
2022-11-20T01:36:09.793Z,10.10
2022-11-20T01:38:36.699Z,10.20
2022-11-20T01:41:03.934Z,10.10
2022-11-20T01:43:30.965Z,10.20
2022-11-20T01:45:57.576Z,10.10
2022-11-20T01:48:27.677Z,10.00
2022-11-20T01:50:55.105Z,10.00
2022-11-20T01:53:26.411Z,10.10
2022-11-20T01:55:57.746Z,10.10
2022-11-20T01:58:29.876Z,10.10
2022-11-20T02:00:56.917Z,10.20
2022-11-20T02:03:24.302Z,10.30
2022-11-20T02:05:57.543Z,10.30
2022-11-20T02:08:25.468Z,10.20
2022-11-20T02:10:52.248Z,10.20
2022-11-20T02:13:37.584Z,10.20
2022-11-20T02:16:05.027Z,10.20
2022-11-20T02:18:32.093Z,10.20
2022-11-20T02:21:10.289Z,10.20
2022-11-20T02:23:44.283Z,10.10
2022-11-20T02:26:14.111Z,10.10
2022-11-20T02:28:40.896Z,10.20
2022-11-20T02:31:08.736Z,0.00
2022-11-20T02:33:35.447Z,10.20
2022-11-20T02:36:02.528Z,10.30
2022-11-20T02:38:29.122Z,10.20
2022-11-20T02:40:56.040Z,10.10
2022-11-20T02:43:23.608Z,10.10
2022-11-20T02:45:50.964Z,10.00
2022-11-20T02:48:17.786Z,10.10
2022-11-20T02:50:44.482Z,10.10
2022-11-20T02:53:11.227Z,10.10
2022-11-20T02:55:38.045Z,10.10
2022-11-20T02:58:04.885Z,10.10
2022-11-20T03:00:31.736Z,10.10
2022-11-20T03:02:58.568Z,10.00
2022-11-20T03:05:25.330Z,10.00
2022-11-20T03:07:52.092Z,9.90
2022-11-20T03:10:18.909Z,10.00
2022-11-20T03:12:46.465Z,9.90
2022-11-20T03:15:13.301Z,9.80
2022-11-20T03:17:40.106Z,0.00
2022-11-20T03:20:07.621Z,9.90
2022-11-20T03:22:34.377Z,9.90
2022-11-20T03:25:01.129Z,9.90
2022-11-20T03:27:27.895Z,10.00
2022-11-20T03:29:54.619Z,9.90
2022-11-20T03:32:21.412Z,9.80
2022-11-20T03:34:48.105Z,9.90
2022-11-20T03:37:14.924Z,9.90
2022-11-20T03:39:41.640Z,9.90
2022-11-20T03:42:29.841Z,9.90
2022-11-20T03:44:56.581Z,9.80
2022-11-20T03:47:23.434Z,0.00
2022-11-20T03:49:50.296Z,9.90
2022-11-20T03:52:17.052Z,9.90
2022-11-20T03:54:43.724Z,9.90
2022-11-20T03:57:10.524Z,9.80
2022-11-20T03:59:37.381Z,9.60
2022-11-20T04:02:04.233Z,9.50
2022-11-20T04:04:31.080Z,9.40
2022-11-20T04:06:57.945Z,9.50
2022-11-20T04:09:24.793Z,9.40
2022-11-20T04:11:51.522Z,9.50
2022-11-20T04:14:18.567Z,9.60
2022-11-20T04:16:45.369Z,9.70
2022-11-20T04:19:14.880Z,9.70
2022-11-20T04:21:42.308Z,9.80
2022-11-20T04:24:09.286Z,9.80
2022-11-20T04:26:35.932Z,9.90
2022-11-20T04:29:02.903Z,10.00
2022-11-20T04:31:32.551Z,9.80
2022-11-20T04:34:04.010Z,9.90
2022-11-20T04:36:31.583Z,9.70
2022-11-20T04:39:00.581Z,9.90
2022-11-20T04:41:32.678Z,9.80
2022-11-20T04:44:03.976Z,9.80
2022-11-20T04:46:36.696Z,9.80
2022-11-20T04:49:04.031Z,9.70
2022-11-20T04:51:30.824Z,9.70
2022-11-20T04:53:57.852Z,9.70
2022-11-20T04:56:24.641Z,9.70
2022-11-20T04:58:51.817Z,9.70
2022-11-20T05:01:22.058Z,9.70
2022-11-20T05:03:49.464Z,9.80
2022-11-20T05:06:18.370Z,9.80
2022-11-20T05:08:45.178Z,9.70
2022-11-20T05:11:21.885Z,9.70
2022-11-20T05:13:49.453Z,9.70
2022-11-20T05:16:21.571Z,9.70
2022-11-20T05:18:49.441Z,9.80
2022-11-20T05:21:17.006Z,9.70
2022-11-20T05:23:44.828Z,9.70
2022-11-20T05:26:20.325Z,9.70
2022-11-20T05:28:47.965Z,9.70
2022-11-20T05:31:21.935Z,9.70
2022-11-20T05:33:51.996Z,9.70
2022-11-20T05:36:19.121Z,9.70
2022-11-20T05:38:50.231Z,9.70
2022-11-20T05:41:19.623Z,9.70
2022-11-20T05:43:48.106Z,9.70
2022-11-20T05:46:17.682Z,9.70
2022-11-20T05:48:45.598Z,9.60
2022-11-20T05:51:15.287Z,9.50
2022-11-20T05:53:46.840Z,9.40
2022-11-20T05:56:18.219Z,9.50
2022-11-20T05:58:45.924Z,9.40
2022-11-20T06:01:16.941Z,9.40
2022-11-20T06:03:47.016Z,9.50
2022-11-20T06:06:15.070Z,9.50
2022-11-20T06:08:42.019Z,9.30
2022-11-20T06:11:10.569Z,9.40
2022-11-20T06:13:41.882Z,9.30
2022-11-20T06:16:10.576Z,9.20
2022-11-20T06:18:37.782Z,9.10
2022-11-20T06:21:09.970Z,9.10
2022-11-20T06:23:37.471Z,9.10
2022-11-20T06:26:11.747Z,8.90
2022-11-20T06:28:38.979Z,9.10
2022-11-20T06:31:07.190Z,9.00
2022-11-20T06:33:34.206Z,9.10
2022-11-20T06:36:05.712Z,8.90
2022-11-20T06:38:35.930Z,9.00
2022-11-20T06:41:03.892Z,8.80
2022-11-20T06:43:31.002Z,8.90
2022-11-20T06:45:59.243Z,0.00
2022-11-20T06:48:28.372Z,8.90
2022-11-20T06:50:55.272Z,8.90
2022-11-20T06:53:23.435Z,8.90
2022-11-20T06:55:50.991Z,8.90
2022-11-20T06:58:18.879Z,8.80
2022-11-20T07:00:46.031Z,8.60
2022-11-20T07:03:13.700Z,8.40
2022-11-20T07:05:41.267Z,8.60
2022-11-20T07:08:08.623Z,8.30
2022-11-20T07:10:35.575Z,8.20
2022-11-20T07:13:02.416Z,8.20
2022-11-20T07:15:29.528Z,8.30
2022-11-20T07:17:56.112Z,8.20
2022-11-20T07:20:22.842Z,8.40
2022-11-20T07:22:58.087Z,8.20
2022-11-20T07:25:26.384Z,8.30
2022-11-20T07:27:53.424Z,8.20
2022-11-20T07:30:20.226Z,8.30
2022-11-20T07:32:48.611Z,8.30
2022-11-20T07:35:15.456Z,8.30
2022-11-20T07:37:42.275Z,8.20
2022-11-20T07:40:10.557Z,8.20
2022-11-20T07:42:37.331Z,8.20
2022-11-20T07:45:04.336Z,8.10
2022-11-20T07:47:37.219Z,8.30
2022-11-20T07:50:04.290Z,8.20
2022-11-20T07:52:30.997Z,8.30
2022-11-20T07:54:57.785Z,8.30
2022-11-20T07:57:28.255Z,8.40
2022-11-20T07:59:55.261Z,8.60
2022-11-20T08:02:22.099Z,8.70
2022-11-20T08:04:48.851Z,8.70
2022-11-20T08:07:15.790Z,8.90
2022-11-20T08:09:42.549Z,8.80
2022-11-20T08:12:28.603Z,9.00
2022-11-20T08:14:57.721Z,9.10
2022-11-20T08:17:24.502Z,9.20
2022-11-20T08:19:51.288Z,9.30
2022-11-20T08:22:18.653Z,9.40
2022-11-20T08:24:45.383Z,9.50
2022-11-20T08:27:12.207Z,9.60
2022-11-20T08:29:38.970Z,9.70
2022-11-20T08:32:05.774Z,9.70
2022-11-20T08:34:32.630Z,9.90
2022-11-20T08:36:59.867Z,9.90
2022-11-20T08:39:26.559Z,10.00
2022-11-20T08:41:53.326Z,10.10
2022-11-20T08:44:20.121Z,10.20
2022-11-20T08:46:48.056Z,10.20
2022-11-20T08:49:15.911Z,10.30
2022-11-20T08:51:43.287Z,10.40
2022-11-20T08:54:10.079Z,10.40
2022-11-20T08:56:36.859Z,10.50
2022-11-20T08:59:26.858Z,10.60
2022-11-20T09:01:50.915Z,10.70
2022-11-20T09:04:17.690Z,10.70
2022-11-20T09:06:46.000Z,10.80
2022-11-20T09:09:12.730Z,10.80
2022-11-20T09:11:39.509Z,11.00
2022-11-20T09:14:06.310Z,10.90
2022-11-20T09:16:33.121Z,11.10
2022-11-20T09:19:20.586Z,11.20
2022-11-20T09:21:46.689Z,11.20
2022-11-20T09:24:13.586Z,11.30
2022-11-20T09:26:40.224Z,11.30
2022-11-20T09:29:07.124Z,11.40
2022-11-20T09:31:33.900Z,11.40
2022-11-20T09:34:00.657Z,11.50
2022-11-20T09:36:27.486Z,11.60
2022-11-20T09:38:54.865Z,11.60
2022-11-20T09:41:33.775Z,11.80
2022-11-20T09:44:21.766Z,11.80
2022-11-20T09:47:33.809Z,12.10
2022-11-20T09:50:22.210Z,12.10
2022-11-20T09:52:58.111Z,12.20
2022-11-20T09:55:25.686Z,12.40
2022-11-20T09:57:53.528Z,12.40
2022-11-20T10:00:22.260Z,0.00
2022-11-20T10:03:18.960Z,12.70
2022-11-20T10:05:52.220Z,12.60
2022-11-20T10:08:22.607Z,12.70
2022-11-20T10:11:11.161Z,12.80
2022-11-20T10:14:00.855Z,12.90
2022-11-20T10:16:40.561Z,12.90
2022-11-20T10:19:07.807Z,12.90
2022-11-20T10:21:36.730Z,13.00
2022-11-20T10:24:18.183Z,13.00
2022-11-20T10:27:03.711Z,13.10
2022-11-20T10:29:35.301Z,13.20
2022-11-20T10:32:08.763Z,13.20
2022-11-20T10:34:39.995Z,13.20
2022-11-20T10:37:13.959Z,13.30
2022-11-20T10:40:04.693Z,13.40
2022-11-20T10:42:59.977Z,13.50
2022-11-20T10:45:27.111Z,13.50
2022-11-20T10:48:17.650Z,13.60
2022-11-20T10:51:06.078Z,13.70
2022-11-20T10:53:41.518Z,13.70
2022-11-20T10:56:26.377Z,13.70
2022-11-20T10:59:26.949Z,13.80
2022-11-20T11:01:53.936Z,13.90
2022-11-20T11:04:29.685Z,13.90
2022-11-20T11:07:10.704Z,13.90
2022-11-20T11:09:45.140Z,14.00
2022-11-20T11:12:12.482Z,14.10
2022-11-20T11:15:05.616Z,14.20
2022-11-20T11:17:34.277Z,14.20
2022-11-20T11:20:04.125Z,14.20
2022-11-20T11:22:33.803Z,14.30
2022-11-20T11:25:00.921Z,14.30
2022-11-20T11:27:28.493Z,14.30
2022-11-20T11:30:15.721Z,14.30
2022-11-20T11:32:42.581Z,14.40
2022-11-20T11:35:28.583Z,14.40
2022-11-20T11:38:10.679Z,14.50
2022-11-20T11:40:40.842Z,14.50
2022-11-20T11:43:38.110Z,14.60
2022-11-20T11:46:23.064Z,14.70
2022-11-20T11:49:11.336Z,14.60
2022-11-20T11:51:59.829Z,14.60
2022-11-20T11:54:35.628Z,14.60
2022-11-20T11:57:11.295Z,14.70
2022-11-20T12:00:04.047Z,14.80
2022-11-20T12:02:49.795Z,14.80
2022-11-20T12:05:21.377Z,14.90
2022-11-20T12:08:14.431Z,14.90
2022-11-20T12:10:54.431Z,15.00
2022-11-20T12:13:46.357Z,15.00
2022-11-20T12:16:15.890Z,15.00
2022-11-20T12:18:43.862Z,15.10
2022-11-20T12:21:23.791Z,15.10
2022-11-20T12:24:03.355Z,15.20
2022-11-20T12:27:07.703Z,15.20
2022-11-20T12:30:02.582Z,15.10
2022-11-20T12:32:35.344Z,15.10
2022-11-20T12:35:31.652Z,15.10
2022-11-20T12:38:53.201Z,15.20
2022-11-20T12:41:59.329Z,15.30
2022-11-20T12:45:09.523Z,15.40
2022-11-20T12:47:57.181Z,15.40
2022-11-20T12:50:30.650Z,15.40
2022-11-20T12:53:17.257Z,15.30
2022-11-20T12:56:07.228Z,15.40
2022-11-20T12:59:10.643Z,15.30
2022-11-20T13:01:51.387Z,15.30
2022-11-20T13:04:39.440Z,15.20
2022-11-20T13:07:17.227Z,15.20
2022-11-20T13:09:47.949Z,0.00
2022-11-20T13:12:34.364Z,15.30
2022-11-20T13:15:18.953Z,15.40
2022-11-20T13:18:15.524Z,15.30
2022-11-20T13:20:47.639Z,15.30
2022-11-20T13:23:28.504Z,15.30
2022-11-20T13:26:16.861Z,15.30
2022-11-20T13:28:43.883Z,15.30
2022-11-20T13:31:26.893Z,15.30
2022-11-20T13:33:56.430Z,15.30
2022-11-20T13:36:27.564Z,15.20
2022-11-20T13:38:56.145Z,15.20
2022-11-20T13:41:33.167Z,15.20
2022-11-20T13:44:15.122Z,15.30
2022-11-20T13:46:47.216Z,15.30
2022-11-20T13:49:44.804Z,15.20
2022-11-20T13:52:49.276Z,15.20
2022-11-20T13:55:37.577Z,15.10
2022-11-20T13:58:21.829Z,15.10
2022-11-20T14:01:01.966Z,15.00
2022-11-20T14:03:58.870Z,14.90
2022-11-20T14:06:32.518Z,14.90
2022-11-20T14:08:59.635Z,14.90
2022-11-20T14:11:30.963Z,14.80
2022-11-20T14:14:05.900Z,14.70
2022-11-20T14:16:37.270Z,14.70
2022-11-20T14:19:22.360Z,14.70
2022-11-20T14:21:53.714Z,14.60
2022-11-20T14:24:24.981Z,14.60
2022-11-20T14:26:53.093Z,14.50
2022-11-20T14:29:28.017Z,14.50
2022-11-20T14:31:56.751Z,14.40
2022-11-20T14:34:27.187Z,14.30
2022-11-20T14:36:58.143Z,14.40
2022-11-20T14:39:34.191Z,14.40
2022-11-20T14:42:01.620Z,14.30
2022-11-20T14:44:34.917Z,14.30
2022-11-20T14:47:03.521Z,14.30
2022-11-20T14:49:33.048Z,14.30
2022-11-20T14:52:11.507Z,14.30
2022-11-20T14:54:46.257Z,14.30
2022-11-20T14:57:22.396Z,14.20
2022-11-20T14:59:49.266Z,14.20
2022-11-20T15:02:16.831Z,14.10
2022-11-20T15:04:51.702Z,14.10
2022-11-20T15:07:30.151Z,14.00
2022-11-20T15:10:12.968Z,14.00
2022-11-20T15:12:48.694Z,13.90
2022-11-20T15:15:24.226Z,13.80
2022-11-20T15:17:51.520Z,13.70
2022-11-20T15:20:18.690Z,13.80
2022-11-20T15:22:45.580Z,13.60
2022-11-20T15:25:17.146Z,13.60
2022-11-20T15:27:45.196Z,13.60
2022-11-20T15:30:20.953Z,13.60
2022-11-20T15:32:48.299Z,13.50
2022-11-20T15:35:16.268Z,13.50
2022-11-20T15:37:43.768Z,13.50
2022-11-20T15:40:10.841Z,13.50
2022-11-20T15:42:37.708Z,13.50
2022-11-20T15:45:04.447Z,13.40
2022-11-20T15:47:34.063Z,13.40
2022-11-20T15:50:01.278Z,13.30
2022-11-20T15:52:30.537Z,13.40
2022-11-20T15:55:09.672Z,13.30
2022-11-20T15:57:36.713Z,13.30
2022-11-20T16:00:04.139Z,13.20
2022-11-20T16:02:30.874Z,13.20
2022-11-20T16:04:57.780Z,13.20
2022-11-20T16:07:24.581Z,13.20
2022-11-20T16:09:51.241Z,13.10
2022-11-20T16:12:37.970Z,13.10
2022-11-20T16:15:23.868Z,13.00
2022-11-20T16:17:50.497Z,12.90
2022-11-20T16:20:17.709Z,12.90
2022-11-20T16:22:44.483Z,12.90
2022-11-20T16:25:11.278Z,12.90
2022-11-20T16:27:37.931Z,12.90
2022-11-20T16:30:05.121Z,12.80
2022-11-20T16:32:32.276Z,12.80
2022-11-20T16:34:59.070Z,12.90
2022-11-20T16:37:25.743Z,12.80
2022-11-20T16:39:52.540Z,12.70
2022-11-20T16:42:19.232Z,12.70
2022-11-20T16:44:47.824Z,12.70
2022-11-20T16:47:14.569Z,12.70
2022-11-20T16:49:41.434Z,12.70
2022-11-20T16:52:08.003Z,12.70
2022-11-20T16:54:34.812Z,12.70
2022-11-20T16:57:01.486Z,12.60
2022-11-20T16:59:28.211Z,12.50
2022-11-20T17:01:55.018Z,12.40
2022-11-20T17:04:22.181Z,12.40
2022-11-20T17:06:49.228Z,12.40
2022-11-20T17:09:16.132Z,12.20
2022-11-20T17:11:42.961Z,12.30
2022-11-20T17:14:11.563Z,12.20
2022-11-20T17:16:38.590Z,12.30
2022-11-20T17:19:06.047Z,12.30
2022-11-20T17:21:36.125Z,12.20
2022-11-20T17:24:05.760Z,11.90
2022-11-20T17:26:32.733Z,12.10
2022-11-20T17:29:10.045Z,11.90
2022-11-20T17:31:40.350Z,11.90
2022-11-20T17:34:08.646Z,11.70
2022-11-20T17:36:35.885Z,11.50
2022-11-20T17:39:03.813Z,11.50
2022-11-20T17:41:30.576Z,11.30
2022-11-20T17:43:59.434Z,11.30
2022-11-20T17:46:29.429Z,11.30
2022-11-20T17:48:56.737Z,11.40
2022-11-20T17:51:30.585Z,11.30
2022-11-20T17:56:54.019Z,11.20
2022-11-20T17:59:20.950Z,11.00
2022-11-20T18:01:48.016Z,11.00
2022-11-20T18:04:14.948Z,10.90
2022-11-20T18:06:42.814Z,10.90
2022-11-20T18:09:09.591Z,11.00
2022-11-20T18:11:38.621Z,11.00
2022-11-20T18:14:26.590Z,10.90
2022-11-20T18:16:56.205Z,10.80
2022-11-20T18:19:32.483Z,10.80
2022-11-20T18:22:01.809Z,10.70
2022-11-20T18:24:29.068Z,10.60
2022-11-20T18:26:57.644Z,10.60
2022-11-20T18:29:25.745Z,10.50
2022-11-20T18:31:53.158Z,10.50
2022-11-20T18:34:20.016Z,10.40
2022-11-20T18:36:46.796Z,10.40
2022-11-20T18:39:15.102Z,10.50
2022-11-20T18:42:01.393Z,10.50
2022-11-20T18:44:48.871Z,10.50
2022-11-20T18:47:36.132Z,10.50
2022-11-20T18:50:04.073Z,10.40
2022-11-20T18:52:38.524Z,10.30
2022-11-20T18:55:06.337Z,10.40
2022-11-20T18:57:33.177Z,10.40
2022-11-20T19:00:05.038Z,10.50
2022-11-20T19:02:37.922Z,10.50
2022-11-20T19:05:08.594Z,10.60
2022-11-20T19:07:35.467Z,10.60
2022-11-20T19:10:03.887Z,10.50
2022-11-20T19:12:31.871Z,10.60
2022-11-20T19:14:58.598Z,10.60
2022-11-20T19:17:25.314Z,10.60
2022-11-20T19:19:54.802Z,10.50
2022-11-20T19:22:21.841Z,10.60
2022-11-20T19:24:49.271Z,10.50
2022-11-20T19:27:16.051Z,10.50
2022-11-20T19:29:42.864Z,10.50
2022-11-20T19:32:09.769Z,10.50
2022-11-20T19:34:36.981Z,10.50
2022-11-20T19:37:03.792Z,10.50
2022-11-20T19:39:30.636Z,10.50
2022-11-20T19:41:57.452Z,10.50
2022-11-20T19:44:24.200Z,10.40
2022-11-20T19:46:51.020Z,10.40
2022-11-20T19:49:18.145Z,10.40
2022-11-20T19:51:47.497Z,10.40
2022-11-20T19:54:14.895Z,10.40
2022-11-20T19:56:41.883Z,10.40
2022-11-20T19:59:08.600Z,10.50
2022-11-20T20:01:35.615Z,10.40
2022-11-20T20:04:03.649Z,10.40
2022-11-20T20:06:31.885Z,10.50
2022-11-20T20:09:04.509Z,10.40
2022-11-20T20:11:33.013Z,10.40
2022-11-20T20:14:08.629Z,10.40
2022-11-20T20:16:35.734Z,10.40
2022-11-20T20:19:04.389Z,10.40
2022-11-20T20:21:32.832Z,10.50
2022-11-20T20:24:00.756Z,10.40
2022-11-20T20:26:30.788Z,10.40
2022-11-20T20:28:57.705Z,10.40
2022-11-20T20:31:27.631Z,10.30
2022-11-20T20:33:55.072Z,10.20
2022-11-20T20:36:23.710Z,10.10
2022-11-20T20:38:59.479Z,10.20
2022-11-20T20:41:26.327Z,10.00
2022-11-20T20:44:12.076Z,10.00
2022-11-20T20:46:39.778Z,9.80
2022-11-20T20:49:07.373Z,9.90
2022-11-20T20:51:34.699Z,9.80
2022-11-20T20:54:01.826Z,9.60
2022-11-20T20:56:28.634Z,9.60
2022-11-20T20:58:55.418Z,9.40
2022-11-20T21:01:22.998Z,9.40
2022-11-20T21:03:49.938Z,9.40
2022-11-20T21:06:18.933Z,9.40
2022-11-20T21:08:46.154Z,9.50
2022-11-20T21:11:15.696Z,9.70
2022-11-20T21:13:44.912Z,9.70
2022-11-20T21:16:13.674Z,9.80
2022-11-20T21:18:40.793Z,9.90
2022-11-20T21:21:27.669Z,9.80
2022-11-20T21:23:54.583Z,9.80
2022-11-20T21:26:22.181Z,9.80
2022-11-20T21:28:49.959Z,9.70
2022-11-20T21:31:22.237Z,9.80
2022-11-20T21:33:50.600Z,9.80
2022-11-20T21:36:19.642Z,9.70
2022-11-20T21:38:47.379Z,9.70
2022-11-20T21:41:15.406Z,9.80
2022-11-20T21:43:46.966Z,9.80
2022-11-20T21:46:15.859Z,9.80
2022-11-20T21:48:44.437Z,9.90
2022-11-20T21:51:16.377Z,9.80
2022-11-20T21:53:44.289Z,9.90
2022-11-20T21:56:16.342Z,9.90
2022-11-20T21:58:46.353Z,9.90
2022-11-20T22:01:19.124Z,10.00
2022-11-20T22:03:57.551Z,9.90
2022-11-20T22:06:25.910Z,9.90
2022-11-20T22:08:53.520Z,9.90
2022-11-20T22:11:21.876Z,9.80
2022-11-20T22:14:07.561Z,9.80
2022-11-20T22:16:36.214Z,9.80
2022-11-20T22:19:04.393Z,9.70
2022-11-20T22:21:31.895Z,9.80
2022-11-20T22:23:59.500Z,9.80
2022-11-20T22:26:33.812Z,9.80
2022-11-20T22:29:03.275Z,9.70
2022-11-20T22:31:31.213Z,9.70
2022-11-20T22:34:00.718Z,9.60
2022-11-20T22:36:29.331Z,9.60
2022-11-20T22:38:56.747Z,9.70
2022-11-20T22:41:27.208Z,9.60
2022-11-20T22:43:59.159Z,9.70
2022-11-20T22:46:27.681Z,9.70
2022-11-20T22:48:58.155Z,9.70
2022-11-20T22:51:27.472Z,9.50
2022-11-20T22:53:54.644Z,9.60
2022-11-20T22:56:22.129Z,9.50
2022-11-20T22:58:51.213Z,9.60
2022-11-20T23:01:21.245Z,9.60
2022-11-20T23:03:53.349Z,9.60
2022-11-20T23:06:21.472Z,9.60
2022-11-20T23:08:49.061Z,9.40
2022-11-20T23:11:18.508Z,9.50
2022-11-20T23:13:46.315Z,9.50
2022-11-20T23:16:15.900Z,9.50
2022-11-20T23:18:43.903Z,9.60
2022-11-20T23:21:14.759Z,9.60
2022-11-20T23:23:42.309Z,9.50
2022-11-20T23:26:11.899Z,9.50
2022-11-20T23:28:40.079Z,9.60
2022-11-20T23:31:07.274Z,9.60
2022-11-20T23:33:38.982Z,9.60
2022-11-20T23:36:07.329Z,9.60
2022-11-20T23:38:34.750Z,9.70
2022-11-20T23:41:01.905Z,9.70
2022-11-20T23:43:28.942Z,9.60
2022-11-20T23:45:58.181Z,9.80
2022-11-20T23:48:27.469Z,9.80
2022-11-20T23:50:54.265Z,9.80
2022-11-20T23:53:22.190Z,9.90
2022-11-20T23:55:51.800Z,9.90
2022-11-20T23:58:19.862Z,9.80
